sensor_id;sensor_type;location;lat;lon;timestamp;P1;durP1;ratioP1;P2;durP2;ratioP2
17153;SDS011;8692;52.164;7.558;2023-05-07T00:02:00;7.53;;;6.83;;
17153;SDS011;8692;52.164;7.558;2023-05-07T00:04:30;11.10;;;8.82;;
17153;SDS011;8692;52.164;7.558;2023-05-07T00:07:03;7.80;;;7.10;;
17153;SDS011;8692;52.164;7.558;2023-05-07T00:09:34;7.77;;;6.97;;
17153;SDS011;8692;52.164;7.558;2023-05-07T00:12:03;8.77;;;7.87;;
17153;SDS011;8692;52.164;7.558;2023-05-07T00:14:32;8.53;;;7.40;;
17153;SDS011;8692;52.164;7.558;2023-05-07T00:17:03;7.97;;;7.17;;
17153;SDS011;8692;52.164;7.558;2023-05-07T00:19:31;9.40;;;8.50;;
17153;SDS011;8692;52.164;7.558;2023-05-07T00:21:59;10.40;;;8.10;;
17153;SDS011;8692;52.164;7.558;2023-05-07T00:24:28;8.20;;;7.43;;
17153;SDS011;8692;52.164;7.558;2023-05-07T00:26:58;9.33;;;8.17;;
17153;SDS011;8692;52.164;7.558;2023-05-07T00:29:27;8.87;;;7.97;;
17153;SDS011;8692;52.164;7.558;2023-05-07T00:31:59;8.63;;;7.73;;
17153;SDS011;8692;52.164;7.558;2023-05-07T00:34:27;10.43;;;9.33;;
17153;SDS011;8692;52.164;7.558;2023-05-07T00:36:58;8.60;;;7.80;;
17153;SDS011;8692;52.164;7.558;2023-05-07T00:39:26;8.93;;;8.03;;
17153;SDS011;8692;52.164;7.558;2023-05-07T00:41:54;11.73;;;7.47;;
17153;SDS011;8692;52.164;7.558;2023-05-07T00:44:23;9.97;;;8.60;;
17153;SDS011;8692;52.164;7.558;2023-05-07T00:46:51;8.73;;;7.90;;
17153;SDS011;8692;52.164;7.558;2023-05-07T00:49:24;10.67;;;9.57;;
17153;SDS011;8692;52.164;7.558;2023-05-07T00:52:02;9.50;;;8.50;;
17153;SDS011;8692;52.164;7.558;2023-05-07T00:54:31;10.57;;;9.57;;
17153;SDS011;8692;52.164;7.558;2023-05-07T00:57:01;11.77;;;10.40;;
17153;SDS011;8692;52.164;7.558;2023-05-07T00:59:33;11.93;;;10.50;;
17153;SDS011;8692;52.164;7.558;2023-05-07T01:02:04;11.20;;;10.10;;
17153;SDS011;8692;52.164;7.558;2023-05-07T01:04:36;13.27;;;11.87;;
17153;SDS011;8692;52.164;7.558;2023-05-07T01:07:07;12.77;;;10.33;;
17153;SDS011;8692;52.164;7.558;2023-05-07T01:09:36;11.63;;;10.03;;
17153;SDS011;8692;52.164;7.558;2023-05-07T01:12:04;11.67;;;10.47;;
17153;SDS011;8692;52.164;7.558;2023-05-07T01:14:34;14.30;;;10.37;;
17153;SDS011;8692;52.164;7.558;2023-05-07T01:17:02;13.70;;;12.30;;
17153;SDS011;8692;52.164;7.558;2023-05-07T01:19:30;13.67;;;11.90;;
17153;SDS011;8692;52.164;7.558;2023-05-07T01:22:03;13.97;;;12.50;;
17153;SDS011;8692;52.164;7.558;2023-05-07T01:24:46;13.33;;;12.03;;
17153;SDS011;8692;52.164;7.558;2023-05-07T01:27:15;13.77;;;12.47;;
17153;SDS011;8692;52.164;7.558;2023-05-07T01:29:46;14.63;;;13.23;;
17153;SDS011;8692;52.164;7.558;2023-05-07T01:32:16;13.93;;;12.53;;
17153;SDS011;8692;52.164;7.558;2023-05-07T01:34:51;14.87;;;13.33;;
17153;SDS011;8692;52.164;7.558;2023-05-07T01:37:24;13.97;;;12.67;;
17153;SDS011;8692;52.164;7.558;2023-05-07T01:39:57;14.20;;;12.70;;
17153;SDS011;8692;52.164;7.558;2023-05-07T01:42:28;15.47;;;13.97;;
17153;SDS011;8692;52.164;7.558;2023-05-07T01:44:57;14.97;;;13.40;;
17153;SDS011;8692;52.164;7.558;2023-05-07T01:47:28;15.37;;;13.97;;
17153;SDS011;8692;52.164;7.558;2023-05-07T01:49:59;14.10;;;12.63;;
17153;SDS011;8692;52.164;7.558;2023-05-07T01:52:28;15.90;;;13.97;;
17153;SDS011;8692;52.164;7.558;2023-05-07T01:54:58;15.63;;;14.10;;
17153;SDS011;8692;52.164;7.558;2023-05-07T01:57:27;16.10;;;14.47;;
17153;SDS011;8692;52.164;7.558;2023-05-07T01:59:57;15.50;;;13.83;;
17153;SDS011;8692;52.164;7.558;2023-05-07T02:02:25;16.93;;;15.03;;
17153;SDS011;8692;52.164;7.558;2023-05-07T02:04:56;17.73;;;14.80;;
17153;SDS011;8692;52.164;7.558;2023-05-07T02:07:24;17.70;;;14.13;;
17153;SDS011;8692;52.164;7.558;2023-05-07T02:09:55;16.47;;;14.70;;
17153;SDS011;8692;52.164;7.558;2023-05-07T02:12:24;16.00;;;14.50;;
17153;SDS011;8692;52.164;7.558;2023-05-07T02:14:52;16.13;;;14.53;;
17153;SDS011;8692;52.164;7.558;2023-05-07T02:17:23;17.53;;;15.73;;
17153;SDS011;8692;52.164;7.558;2023-05-07T02:19:51;15.90;;;14.30;;
17153;SDS011;8692;52.164;7.558;2023-05-07T02:22:22;17.23;;;14.73;;
17153;SDS011;8692;52.164;7.558;2023-05-07T02:24:50;18.10;;;15.80;;
17153;SDS011;8692;52.164;7.558;2023-05-07T02:27:20;16.83;;;15.07;;
17153;SDS011;8692;52.164;7.558;2023-05-07T02:29:52;17.63;;;15.03;;
17153;SDS011;8692;52.164;7.558;2023-05-07T02:32:21;17.10;;;15.43;;
17153;SDS011;8692;52.164;7.558;2023-05-07T02:34:50;17.17;;;15.47;;
17153;SDS011;8692;52.164;7.558;2023-05-07T02:37:18;16.07;;;14.37;;
17153;SDS011;8692;52.164;7.558;2023-05-07T02:39:46;17.07;;;15.33;;
17153;SDS011;8692;52.164;7.558;2023-05-07T02:42:15;16.17;;;14.43;;
17153;SDS011;8692;52.164;7.558;2023-05-07T02:44:44;15.90;;;14.40;;
17153;SDS011;8692;52.164;7.558;2023-05-07T02:47:14;16.50;;;14.30;;
17153;SDS011;8692;52.164;7.558;2023-05-07T02:49:45;16.53;;;14.93;;
17153;SDS011;8692;52.164;7.558;2023-05-07T02:52:13;17.90;;;15.93;;
17153;SDS011;8692;52.164;7.558;2023-05-07T02:54:42;18.63;;;15.30;;
17153;SDS011;8692;52.164;7.558;2023-05-07T02:57:10;16.90;;;15.20;;
17153;SDS011;8692;52.164;7.558;2023-05-07T02:59:38;15.87;;;14.30;;
17153;SDS011;8692;52.164;7.558;2023-05-07T03:02:06;16.80;;;15.20;;
17153;SDS011;8692;52.164;7.558;2023-05-07T03:04:37;18.13;;;16.23;;
17153;SDS011;8692;52.164;7.558;2023-05-07T03:07:11;16.97;;;14.33;;
17153;SDS011;8692;52.164;7.558;2023-05-07T03:09:41;16.77;;;15.07;;
17153;SDS011;8692;52.164;7.558;2023-05-07T03:12:10;18.30;;;14.97;;
17153;SDS011;8692;52.164;7.558;2023-05-07T03:14:38;17.57;;;15.77;;
17153;SDS011;8692;52.164;7.558;2023-05-07T03:17:06;16.83;;;15.23;;
17153;SDS011;8692;52.164;7.558;2023-05-07T03:19:34;17.40;;;15.60;;
17153;SDS011;8692;52.164;7.558;2023-05-07T03:22:04;17.87;;;15.87;;
17153;SDS011;8692;52.164;7.558;2023-05-07T03:24:35;17.20;;;15.50;;
17153;SDS011;8692;52.164;7.558;2023-05-07T03:27:03;17.93;;;16.03;;
17153;SDS011;8692;52.164;7.558;2023-05-07T03:29:31;17.60;;;15.90;;
17153;SDS011;8692;52.164;7.558;2023-05-07T03:31:59;17.60;;;15.70;;
17153;SDS011;8692;52.164;7.558;2023-05-07T03:34:28;17.97;;;16.23;;
17153;SDS011;8692;52.164;7.558;2023-05-07T03:36:57;17.53;;;15.73;;
17153;SDS011;8692;52.164;7.558;2023-05-07T03:39:25;19.13;;;17.23;;
17153;SDS011;8692;52.164;7.558;2023-05-07T03:41:54;18.37;;;16.57;;
17153;SDS011;8692;52.164;7.558;2023-05-07T03:44:22;18.40;;;16.50;;
17153;SDS011;8692;52.164;7.558;2023-05-07T03:46:53;19.17;;;17.17;;
17153;SDS011;8692;52.164;7.558;2023-05-07T03:49:21;18.47;;;16.57;;
17153;SDS011;8692;52.164;7.558;2023-05-07T03:51:52;17.90;;;16.10;;
17153;SDS011;8692;52.164;7.558;2023-05-07T03:54:24;19.57;;;17.67;;
17153;SDS011;8692;52.164;7.558;2023-05-07T03:56:54;19.07;;;17.17;;
17153;SDS011;8692;52.164;7.558;2023-05-07T03:59:23;19.00;;;16.97;;
17153;SDS011;8692;52.164;7.558;2023-05-07T04:01:51;18.30;;;16.40;;
17153;SDS011;8692;52.164;7.558;2023-05-07T04:04:22;19.97;;;17.63;;
17153;SDS011;8692;52.164;7.558;2023-05-07T04:06:50;17.57;;;15.77;;
17153;SDS011;8692;52.164;7.558;2023-05-07T04:09:20;19.57;;;17.47;;
17153;SDS011;8692;52.164;7.558;2023-05-07T04:11:50;18.57;;;16.70;;
17153;SDS011;8692;52.164;7.558;2023-05-07T04:14:18;17.87;;;16.07;;
17153;SDS011;8692;52.164;7.558;2023-05-07T04:16:47;21.63;;;17.37;;
17153;SDS011;8692;52.164;7.558;2023-05-07T04:19:15;18.40;;;16.27;;
17153;SDS011;8692;52.164;7.558;2023-05-07T04:21:45;19.60;;;17.63;;
17153;SDS011;8692;52.164;7.558;2023-05-07T04:24:13;17.97;;;16.07;;
17153;SDS011;8692;52.164;7.558;2023-05-07T04:26:43;18.73;;;16.73;;
17153;SDS011;8692;52.164;7.558;2023-05-07T04:29:15;19.40;;;17.30;;
17153;SDS011;8692;52.164;7.558;2023-05-07T04:31:43;18.33;;;16.40;;
17153;SDS011;8692;52.164;7.558;2023-05-07T04:34:12;17.60;;;15.77;;
17153;SDS011;8692;52.164;7.558;2023-05-07T04:36:42;18.20;;;15.93;;
17153;SDS011;8692;52.164;7.558;2023-05-07T04:39:12;18.27;;;16.47;;
17153;SDS011;8692;52.164;7.558;2023-05-07T04:41:43;16.57;;;14.87;;
17153;SDS011;8692;52.164;7.558;2023-05-07T04:44:13;17.83;;;15.97;;
17153;SDS011;8692;52.164;7.558;2023-05-07T04:46:44;18.60;;;16.77;;
17153;SDS011;8692;52.164;7.558;2023-05-07T04:49:12;17.53;;;15.77;;
17153;SDS011;8692;52.164;7.558;2023-05-07T04:51:43;18.53;;;16.63;;
17153;SDS011;8692;52.164;7.558;2023-05-07T04:54:13;20.17;;;16.87;;
17153;SDS011;8692;52.164;7.558;2023-05-07T04:56:44;18.23;;;16.33;;
17153;SDS011;8692;52.164;7.558;2023-05-07T04:59:12;16.53;;;14.87;;
17153;SDS011;8692;52.164;7.558;2023-05-07T05:01:45;18.00;;;16.13;;
17153;SDS011;8692;52.164;7.558;2023-05-07T05:04:13;17.37;;;15.57;;
17153;SDS011;8692;52.164;7.558;2023-05-07T05:06:41;18.20;;;16.30;;
17153;SDS011;8692;52.164;7.558;2023-05-07T05:09:11;18.83;;;16.00;;
17153;SDS011;8692;52.164;7.558;2023-05-07T05:11:40;20.63;;;16.90;;
17153;SDS011;8692;52.164;7.558;2023-05-07T05:14:08;19.10;;;15.97;;
17153;SDS011;8692;52.164;7.558;2023-05-07T05:16:36;19.37;;;17.47;;
17153;SDS011;8692;52.164;7.558;2023-05-07T05:19:06;18.80;;;17.00;;
17153;SDS011;8692;52.164;7.558;2023-05-07T05:21:37;19.40;;;16.67;;
17153;SDS011;8692;52.164;7.558;2023-05-07T05:24:09;17.20;;;15.47;;
17153;SDS011;8692;52.164;7.558;2023-05-07T05:26:38;20.03;;;16.97;;
17153;SDS011;8692;52.164;7.558;2023-05-07T05:29:08;16.10;;;14.53;;
17153;SDS011;8692;52.164;7.558;2023-05-07T05:31:39;19.07;;;17.07;;
17153;SDS011;8692;52.164;7.558;2023-05-07T05:34:14;19.43;;;16.57;;
17153;SDS011;8692;52.164;7.558;2023-05-07T05:36:43;17.27;;;15.47;;
17153;SDS011;8692;52.164;7.558;2023-05-07T05:39:14;16.93;;;15.23;;
17153;SDS011;8692;52.164;7.558;2023-05-07T05:41:45;17.80;;;15.90;;
17153;SDS011;8692;52.164;7.558;2023-05-07T05:44:13;18.40;;;16.37;;
17153;SDS011;8692;52.164;7.558;2023-05-07T05:46:44;16.83;;;15.23;;
17153;SDS011;8692;52.164;7.558;2023-05-07T05:49:12;17.97;;;15.97;;
17153;SDS011;8692;52.164;7.558;2023-05-07T05:51:44;16.70;;;15.10;;
17153;SDS011;8692;52.164;7.558;2023-05-07T05:54:13;17.20;;;15.40;;
17153;SDS011;8692;52.164;7.558;2023-05-07T05:56:41;16.87;;;15.17;;
17153;SDS011;8692;52.164;7.558;2023-05-07T05:59:10;16.17;;;14.57;;
17153;SDS011;8692;52.164;7.558;2023-05-07T06:01:41;16.17;;;14.53;;
17153;SDS011;8692;52.164;7.558;2023-05-07T06:04:09;17.87;;;15.97;;
17153;SDS011;8692;52.164;7.558;2023-05-07T06:06:41;18.23;;;15.97;;
17153;SDS011;8692;52.164;7.558;2023-05-07T06:09:11;17.83;;;16.00;;
17153;SDS011;8692;52.164;7.558;2023-05-07T06:11:42;17.37;;;15.57;;
17153;SDS011;8692;52.164;7.558;2023-05-07T06:14:11;16.93;;;15.10;;
17153;SDS011;8692;52.164;7.558;2023-05-07T06:16:42;17.20;;;15.47;;
17153;SDS011;8692;52.164;7.558;2023-05-07T06:19:13;17.53;;;15.73;;
17153;SDS011;8692;52.164;7.558;2023-05-07T06:21:48;17.00;;;15.30;;
17153;SDS011;8692;52.164;7.558;2023-05-07T06:24:16;17.47;;;15.40;;
17153;SDS011;8692;52.164;7.558;2023-05-07T06:26:44;17.70;;;15.60;;
17153;SDS011;8692;52.164;7.558;2023-05-07T06:29:15;17.33;;;15.63;;
17153;SDS011;8692;52.164;7.558;2023-05-07T06:31:44;16.73;;;15.03;;
17153;SDS011;8692;52.164;7.558;2023-05-07T06:34:13;18.27;;;16.47;;
17153;SDS011;8692;52.164;7.558;2023-05-07T06:36:41;16.20;;;14.63;;
17153;SDS011;8692;52.164;7.558;2023-05-07T06:39:23;18.00;;;16.07;;
17153;SDS011;8692;52.164;7.558;2023-05-07T06:41:54;17.13;;;15.40;;
17153;SDS011;8692;52.164;7.558;2023-05-07T06:44:30;16.77;;;15.17;;
17153;SDS011;8692;52.164;7.558;2023-05-07T06:47:10;17.60;;;15.70;;
17153;SDS011;8692;52.164;7.558;2023-05-07T06:49:43;18.30;;;16.50;;
17153;SDS011;8692;52.164;7.558;2023-05-07T06:52:14;16.50;;;14.87;;
17153;SDS011;8692;52.164;7.558;2023-05-07T06:54:45;16.13;;;14.53;;
17153;SDS011;8692;52.164;7.558;2023-05-07T06:57:16;16.90;;;15.17;;
17153;SDS011;8692;52.164;7.558;2023-05-07T06:59:44;18.23;;;15.70;;
17153;SDS011;8692;52.164;7.558;2023-05-07T07:02:13;17.27;;;15.47;;
17153;SDS011;8692;52.164;7.558;2023-05-07T07:04:44;17.83;;;16.10;;
17153;SDS011;8692;52.164;7.558;2023-05-07T07:07:13;17.77;;;15.97;;
17153;SDS011;8692;52.164;7.558;2023-05-07T07:09:45;17.83;;;15.97;;
17153;SDS011;8692;52.164;7.558;2023-05-07T07:12:16;17.60;;;15.90;;
17153;SDS011;8692;52.164;7.558;2023-05-07T07:14:44;18.23;;;16.33;;
17153;SDS011;8692;52.164;7.558;2023-05-07T07:17:13;16.20;;;14.57;;
17153;SDS011;8692;52.164;7.558;2023-05-07T07:19:41;18.23;;;16.33;;
17153;SDS011;8692;52.164;7.558;2023-05-07T07:22:10;17.20;;;15.20;;
17153;SDS011;8692;52.164;7.558;2023-05-07T07:24:38;18.13;;;16.20;;
17153;SDS011;8692;52.164;7.558;2023-05-07T07:27:12;17.80;;;15.50;;
17153;SDS011;8692;52.164;7.558;2023-05-07T07:29:40;17.83;;;16.10;;
17153;SDS011;8692;52.164;7.558;2023-05-07T07:32:08;17.20;;;15.37;;
17153;SDS011;8692;52.164;7.558;2023-05-07T07:34:39;16.90;;;15.20;;
17153;SDS011;8692;52.164;7.558;2023-05-07T07:37:08;18.03;;;16.07;;
17153;SDS011;8692;52.164;7.558;2023-05-07T07:39:39;19.33;;;17.60;;
17153;SDS011;8692;52.164;7.558;2023-05-07T07:42:11;18.43;;;16.63;;
17153;SDS011;8692;52.164;7.558;2023-05-07T07:44:42;18.73;;;15.93;;
17153;SDS011;8692;52.164;7.558;2023-05-07T07:47:12;17.10;;;15.40;;
17153;SDS011;8692;52.164;7.558;2023-05-07T07:49:41;18.30;;;16.52;;
17153;SDS011;8692;52.164;7.558;2023-05-07T07:52:12;19.23;;;17.35;;
17153;SDS011;8692;52.164;7.558;2023-05-07T07:54:44;17.67;;;15.97;;
17153;SDS011;8692;52.164;7.558;2023-05-07T07:57:16;16.90;;;15.20;;
17153;SDS011;8692;52.164;7.558;2023-05-07T07:59:45;17.43;;;15.57;;
17153;SDS011;8692;52.164;7.558;2023-05-07T08:02:14;22.03;;;15.50;;
17153;SDS011;8692;52.164;7.558;2023-05-07T08:04:44;18.07;;;16.23;;
17153;SDS011;8692;52.164;7.558;2023-05-07T08:07:16;16.13;;;14.43;;
17153;SDS011;8692;52.164;7.558;2023-05-07T08:09:50;19.27;;;16.03;;
17153;SDS011;8692;52.164;7.558;2023-05-07T08:12:22;17.17;;;15.47;;
17153;SDS011;8692;52.164;7.558;2023-05-07T08:14:53;17.67;;;15.87;;
17153;SDS011;8692;52.164;7.558;2023-05-07T08:17:21;17.47;;;15.67;;
17153;SDS011;8692;52.164;7.558;2023-05-07T08:19:52;17.63;;;15.83;;
17153;SDS011;8692;52.164;7.558;2023-05-07T08:22:21;17.10;;;15.30;;
17153;SDS011;8692;52.164;7.558;2023-05-07T08:24:50;17.47;;;14.87;;
17153;SDS011;8692;52.164;7.558;2023-05-07T08:27:20;16.73;;;14.97;;
17153;SDS011;8692;52.164;7.558;2023-05-07T08:29:52;18.60;;;15.43;;
17153;SDS011;8692;52.164;7.558;2023-05-07T08:32:21;18.33;;;15.50;;
17153;SDS011;8692;52.164;7.558;2023-05-07T08:34:49;17.20;;;15.50;;
17153;SDS011;8692;52.164;7.558;2023-05-07T08:37:20;16.77;;;15.07;;
17153;SDS011;8692;52.164;7.558;2023-05-07T08:39:49;17.83;;;15.77;;
17153;SDS011;8692;52.164;7.558;2023-05-07T08:42:20;17.80;;;16.10;;
17153;SDS011;8692;52.164;7.558;2023-05-07T08:44:55;16.73;;;15.13;;
17153;SDS011;8692;52.164;7.558;2023-05-07T08:47:29;16.30;;;14.43;;
17153;SDS011;8692;52.164;7.558;2023-05-07T08:50:11;16.90;;;15.20;;
17153;SDS011;8692;52.164;7.558;2023-05-07T08:52:41;17.73;;;15.90;;
17153;SDS011;8692;52.164;7.558;2023-05-07T08:55:09;16.47;;;14.33;;
17153;SDS011;8692;52.164;7.558;2023-05-07T08:57:41;20.17;;;16.90;;
17153;SDS011;8692;52.164;7.558;2023-05-07T09:00:12;17.03;;;15.33;;
17153;SDS011;8692;52.164;7.558;2023-05-07T09:02:43;15.83;;;14.33;;
17153;SDS011;8692;52.164;7.558;2023-05-07T09:05:11;16.47;;;14.73;;
17153;SDS011;8692;52.164;7.558;2023-05-07T09:07:40;18.97;;;15.03;;
17153;SDS011;8692;52.164;7.558;2023-05-07T09:10:09;16.20;;;14.60;;
17153;SDS011;8692;52.164;7.558;2023-05-07T09:12:39;17.50;;;15.00;;
17153;SDS011;8692;52.164;7.558;2023-05-07T09:15:13;17.10;;;15.40;;
17153;SDS011;8692;52.164;7.558;2023-05-07T09:17:42;16.23;;;13.77;;
17153;SDS011;8692;52.164;7.558;2023-05-07T09:20:11;17.10;;;15.17;;
17153;SDS011;8692;52.164;7.558;2023-05-07T09:22:40;16.07;;;14.07;;
17153;SDS011;8692;52.164;7.558;2023-05-07T09:25:11;15.67;;;14.03;;
17153;SDS011;8692;52.164;7.558;2023-05-07T09:27:42;16.93;;;15.10;;
17153;SDS011;8692;52.164;7.558;2023-05-07T09:30:14;15.17;;;13.57;;
17153;SDS011;8692;52.164;7.558;2023-05-07T09:32:43;15.87;;;14.23;;
17153;SDS011;8692;52.164;7.558;2023-05-07T09:35:16;16.53;;;14.10;;
17153;SDS011;8692;52.164;7.558;2023-05-07T09:37:50;15.60;;;13.67;;
17153;SDS011;8692;52.164;7.558;2023-05-07T09:40:22;14.80;;;13.30;;
17153;SDS011;8692;52.164;7.558;2023-05-07T09:42:52;15.20;;;13.70;;
17153;SDS011;8692;52.164;7.558;2023-05-07T09:45:26;15.93;;;14.10;;
17153;SDS011;8692;52.164;7.558;2023-05-07T09:47:57;15.73;;;14.07;;
17153;SDS011;8692;52.164;7.558;2023-05-07T09:50:28;16.10;;;14.50;;
17153;SDS011;8692;52.164;7.558;2023-05-07T09:53:00;15.27;;;13.67;;
17153;SDS011;8692;52.164;7.558;2023-05-07T09:55:31;13.53;;;12.20;;
17153;SDS011;8692;52.164;7.558;2023-05-07T09:58:01;14.53;;;13.03;;
17153;SDS011;8692;52.164;7.558;2023-05-07T10:00:33;14.83;;;13.30;;
17153;SDS011;8692;52.164;7.558;2023-05-07T10:03:08;15.30;;;13.17;;
17153;SDS011;8692;52.164;7.558;2023-05-07T10:06:00;14.77;;;13.23;;
17153;SDS011;8692;52.164;7.558;2023-05-07T10:08:29;14.67;;;13.17;;
17153;SDS011;8692;52.164;7.558;2023-05-07T10:11:00;14.47;;;12.97;;
17153;SDS011;8692;52.164;7.558;2023-05-07T10:13:31;13.83;;;12.53;;
17153;SDS011;8692;52.164;7.558;2023-05-07T10:16:05;13.70;;;12.50;;
17153;SDS011;8692;52.164;7.558;2023-05-07T10:18:40;14.67;;;13.27;;
17153;SDS011;8692;52.164;7.558;2023-05-07T10:21:16;12.43;;;11.23;;
17153;SDS011;8692;52.164;7.558;2023-05-07T10:26:45;13.60;;;12.30;;
17153;SDS011;8692;52.164;7.558;2023-05-07T10:29:18;14.20;;;12.67;;
17153;SDS011;8692;52.164;7.558;2023-05-07T10:31:56;13.90;;;12.17;;
17153;SDS011;8692;52.164;7.558;2023-05-07T10:34:37;12.93;;;11.53;;
17153;SDS011;8692;52.164;7.558;2023-05-07T10:37:09;13.83;;;12.40;;
17153;SDS011;8692;52.164;7.558;2023-05-07T10:39:39;12.63;;;11.43;;
17153;SDS011;8692;52.164;7.558;2023-05-07T10:42:09;13.23;;;11.90;;
17153;SDS011;8692;52.164;7.558;2023-05-07T10:44:43;12.60;;;11.40;;
17153;SDS011;8692;52.164;7.558;2023-05-07T10:47:18;12.00;;;10.93;;
17153;SDS011;8692;52.164;7.558;2023-05-07T10:56:24;12.30;;;11.17;;
17153;SDS011;8692;52.164;7.558;2023-05-07T11:05:43;11.82;;;10.70;;
17153;SDS011;8692;52.164;7.558;2023-05-07T11:08:20;11.23;;;10.23;;
17153;SDS011;8692;52.164;7.558;2023-05-07T11:11:01;10.10;;;9.20;;
17153;SDS011;8692;52.164;7.558;2023-05-07T11:13:42;10.23;;;9.23;;
17153;SDS011;8692;52.164;7.558;2023-05-07T11:16:25;10.80;;;9.80;;
17153;SDS011;8692;52.164;7.558;2023-05-07T11:19:11;11.43;;;10.23;;
17153;SDS011;8692;52.164;7.558;2023-05-07T11:21:43;11.73;;;9.57;;
17153;SDS011;8692;52.164;7.558;2023-05-07T11:24:30;10.57;;;9.47;;
17153;SDS011;8692;52.164;7.558;2023-05-07T11:27:10;9.47;;;8.50;;
17153;SDS011;8692;52.164;7.558;2023-05-07T11:29:44;9.00;;;8.20;;
17153;SDS011;8692;52.164;7.558;2023-05-07T11:32:14;9.53;;;8.53;;
17153;SDS011;8692;52.164;7.558;2023-05-07T11:34:52;10.73;;;8.77;;
17153;SDS011;8692;52.164;7.558;2023-05-07T11:37:25;8.37;;;7.67;;
17153;SDS011;8692;52.164;7.558;2023-05-07T11:40:03;8.87;;;8.07;;
17153;SDS011;8692;52.164;7.558;2023-05-07T11:42:33;8.77;;;7.43;;
17153;SDS011;8692;52.164;7.558;2023-05-07T11:45:04;8.90;;;8.00;;
17153;SDS011;8692;52.164;7.558;2023-05-07T11:47:33;7.90;;;7.20;;
17153;SDS011;8692;52.164;7.558;2023-05-07T11:50:09;10.40;;;9.40;;
17153;SDS011;8692;52.164;7.558;2023-05-07T11:52:40;8.33;;;7.53;;
17153;SDS011;8692;52.164;7.558;2023-05-07T11:55:18;8.20;;;7.40;;
17153;SDS011;8692;52.164;7.558;2023-05-07T11:57:53;8.87;;;7.97;;
17153;SDS011;8692;52.164;7.558;2023-05-07T12:00:21;8.67;;;7.87;;
17153;SDS011;8692;52.164;7.558;2023-05-07T12:02:49;8.97;;;7.87;;
17153;SDS011;8692;52.164;7.558;2023-05-07T12:05:22;7.80;;;7.10;;
17153;SDS011;8692;52.164;7.558;2023-05-07T12:07:55;9.10;;;7.60;;
17153;SDS011;8692;52.164;7.558;2023-05-07T12:10:24;8.10;;;6.30;;
17153;SDS011;8692;52.164;7.558;2023-05-07T12:12:52;6.57;;;5.90;;
17153;SDS011;8692;52.164;7.558;2023-05-07T12:15:22;6.30;;;5.80;;
17153;SDS011;8692;52.164;7.558;2023-05-07T12:17:50;6.70;;;6.10;;
17153;SDS011;8692;52.164;7.558;2023-05-07T12:20:19;7.73;;;6.93;;
17153;SDS011;8692;52.164;7.558;2023-05-07T12:22:51;8.30;;;7.60;;
17153;SDS011;8692;52.164;7.558;2023-05-07T12:25:19;7.80;;;6.70;;
17153;SDS011;8692;52.164;7.558;2023-05-07T12:27:51;6.13;;;5.53;;
17153;SDS011;8692;52.164;7.558;2023-05-07T12:30:19;7.00;;;6.40;;
17153;SDS011;8692;52.164;7.558;2023-05-07T12:32:51;6.43;;;5.80;;
17153;SDS011;8692;52.164;7.558;2023-05-07T12:35:26;7.00;;;6.40;;
17153;SDS011;8692;52.164;7.558;2023-05-07T12:37:56;7.40;;;6.70;;
17153;SDS011;8692;52.164;7.558;2023-05-07T12:40:35;6.97;;;6.10;;
17153;SDS011;8692;52.164;7.558;2023-05-07T12:43:07;6.23;;;5.73;;
17153;SDS011;8692;52.164;7.558;2023-05-07T12:45:38;6.00;;;5.37;;
17153;SDS011;8692;52.164;7.558;2023-05-07T12:48:11;6.33;;;5.83;;
17153;SDS011;8692;52.164;7.558;2023-05-07T12:50:40;6.93;;;6.23;;
17153;SDS011;8692;52.164;7.558;2023-05-07T12:53:12;5.93;;;5.43;;
17153;SDS011;8692;52.164;7.558;2023-05-07T12:55:44;5.33;;;4.93;;
17153;SDS011;8692;52.164;7.558;2023-05-07T12:58:18;5.63;;;5.13;;
17153;SDS011;8692;52.164;7.558;2023-05-07T13:00:50;5.80;;;5.23;;
17153;SDS011;8692;52.164;7.558;2023-05-07T13:03:23;6.00;;;5.43;;
17153;SDS011;8692;52.164;7.558;2023-05-07T13:05:53;5.10;;;4.70;;
17153;SDS011;8692;52.164;7.558;2023-05-07T13:08:29;5.83;;;5.23;;
17153;SDS011;8692;52.164;7.558;2023-05-07T13:11:07;6.00;;;5.47;;
17153;SDS011;8692;52.164;7.558;2023-05-07T13:13:41;6.73;;;6.00;;
17153;SDS011;8692;52.164;7.558;2023-05-07T13:16:15;6.23;;;5.73;;
17153;SDS011;8692;52.164;7.558;2023-05-07T13:18:49;5.80;;;5.20;;
17153;SDS011;8692;52.164;7.558;2023-05-07T13:21:24;5.33;;;4.83;;
17153;SDS011;8692;52.164;7.558;2023-05-07T13:24:03;5.33;;;4.93;;
17153;SDS011;8692;52.164;7.558;2023-05-07T13:26:34;5.00;;;4.50;;
17153;SDS011;8692;52.164;7.558;2023-05-07T13:29:12;5.03;;;4.50;;
17153;SDS011;8692;52.164;7.558;2023-05-07T13:31:48;5.07;;;4.57;;
17153;SDS011;8692;52.164;7.558;2023-05-07T13:34:24;5.67;;;5.17;;
17153;SDS011;8692;52.164;7.558;2023-05-07T13:36:55;5.43;;;4.93;;
17153;SDS011;8692;52.164;7.558;2023-05-07T13:39:31;5.50;;;5.00;;
17153;SDS011;8692;52.164;7.558;2023-05-07T13:42:22;4.83;;;4.43;;
17153;SDS011;8692;52.164;7.558;2023-05-07T13:45:00;5.13;;;4.67;;
17153;SDS011;8692;52.164;7.558;2023-05-07T13:47:37;6.00;;;5.03;;
17153;SDS011;8692;52.164;7.558;2023-05-07T13:50:07;5.85;;;4.90;;
17153;SDS011;8692;52.164;7.558;2023-05-07T13:52:49;4.88;;;4.43;;
17153;SDS011;8692;52.164;7.558;2023-05-07T13:55:34;6.10;;;5.53;;
17153;SDS011;8692;52.164;7.558;2023-05-07T13:58:06;6.63;;;6.00;;
17153;SDS011;8692;52.164;7.558;2023-05-07T14:00:45;5.13;;;4.63;;
17153;SDS011;8692;52.164;7.558;2023-05-07T14:03:20;5.97;;;5.47;;
17153;SDS011;8692;52.164;7.558;2023-05-07T14:05:50;6.72;;;4.40;;
17153;SDS011;8692;52.164;7.558;2023-05-07T14:08:31;5.63;;;5.17;;
17153;SDS011;8692;52.164;7.558;2023-05-07T14:11:09;5.15;;;4.65;;
17153;SDS011;8692;52.164;7.558;2023-05-07T14:13:51;5.40;;;4.73;;
17153;SDS011;8692;52.164;7.558;2023-05-07T14:16:23;5.47;;;4.93;;
17153;SDS011;8692;52.164;7.558;2023-05-07T14:18:56;5.23;;;4.73;;
17153;SDS011;8692;52.164;7.558;2023-05-07T14:21:31;7.03;;;5.33;;
17153;SDS011;8692;52.164;7.558;2023-05-07T14:24:05;5.27;;;4.77;;
17153;SDS011;8692;52.164;7.558;2023-05-07T14:26:45;5.40;;;4.90;;
17153;SDS011;8692;52.164;7.558;2023-05-07T14:29:17;5.70;;;4.40;;
17153;SDS011;8692;52.164;7.558;2023-05-07T14:31:58;5.10;;;4.70;;
17153;SDS011;8692;52.164;7.558;2023-05-07T14:34:31;5.07;;;4.67;;
17153;SDS011;8692;52.164;7.558;2023-05-07T14:37:11;5.80;;;4.53;;
17153;SDS011;8692;52.164;7.558;2023-05-07T14:39:49;4.60;;;4.13;;
17153;SDS011;8692;52.164;7.558;2023-05-07T14:42:31;5.50;;;5.00;;
17153;SDS011;8692;52.164;7.558;2023-05-07T14:45:03;5.80;;;4.70;;
17153;SDS011;8692;52.164;7.558;2023-05-07T14:47:42;4.77;;;4.37;;
17153;SDS011;8692;52.164;7.558;2023-05-07T14:50:16;7.57;;;4.67;;
17153;SDS011;8692;52.164;7.558;2023-05-07T14:52:57;4.50;;;4.10;;
17153;SDS011;8692;52.164;7.558;2023-05-07T14:55:31;4.17;;;3.70;;
17153;SDS011;8692;52.164;7.558;2023-05-07T14:58:04;4.40;;;4.00;;
17153;SDS011;8692;52.164;7.558;2023-05-07T15:00:39;4.40;;;4.00;;
17153;SDS011;8692;52.164;7.558;2023-05-07T15:03:18;4.13;;;3.47;;
17153;SDS011;8692;52.164;7.558;2023-05-07T15:05:52;4.20;;;3.80;;
17153;SDS011;8692;52.164;7.558;2023-05-07T15:08:29;4.33;;;3.93;;
17153;SDS011;8692;52.164;7.558;2023-05-07T15:11:08;5.13;;;4.17;;
17153;SDS011;8692;52.164;7.558;2023-05-07T15:13:42;5.07;;;3.97;;
17153;SDS011;8692;52.164;7.558;2023-05-07T15:16:21;4.50;;;4.10;;
17153;SDS011;8692;52.164;7.558;2023-05-07T15:19:01;4.37;;;3.97;;
17153;SDS011;8692;52.164;7.558;2023-05-07T15:21:35;3.97;;;3.67;;
17153;SDS011;8692;52.164;7.558;2023-05-07T15:24:26;5.20;;;3.80;;
17153;SDS011;8692;52.164;7.558;2023-05-07T15:27:00;4.13;;;3.73;;